Time;durP1;ratioP1;P1;durP2;ratioP2;P2;SDS_P1;SDS_P2;PMS_P1;PMS_P2;Temp;Humidity;BMP_temperature;BMP_pressure;BME280_temperature;BME280_humidity;BME280_pressure;Samples;Min_cycle;Max_cycle;Signal;HPM_P1;HPM_P2
2021/10/14 00:01:13;;;;;;;6.72;4.10;;;7.50;99.90;;;;;;5028761;28;20248;-79
2021/10/14 00:03:41;;;;;;;5.97;3.85;;;7.70;99.90;;;;;;5029748;28;20193;-79
2021/10/14 00:06:08;;;;;;;8.50;4.25;;;7.60;99.90;;;;;;5029217;28;20239;-79
2021/10/14 00:08:35;;;;;;;7.60;4.00;;;7.60;99.90;;;;;;5029180;28;20223;-79
2021/10/14 00:11:02;;;;;;;5.78;3.95;;;7.50;99.90;;;;;;5029564;28;20745;-79
2021/10/14 00:13:29;;;;;;;8.48;4.32;;;7.50;99.90;;;;;;5029851;28;20302;-79
2021/10/14 00:15:57;;;;;;;7.10;3.40;;;7.40;99.90;;;;;;5029844;28;20290;-79
2021/10/14 00:18:24;;;;;;;5.63;3.70;;;7.60;99.90;;;;;;5029336;28;20235;-80
2021/10/14 00:20:50;;;;;;;7.43;4.50;;;7.40;99.90;;;;;;5029146;28;20717;-79
2021/10/14 00:23:17;;;;;;;8.30;4.30;;;7.50;99.90;;;;;;5028501;28;20219;-80
2021/10/14 00:25:44;;;;;;;9.05;4.38;;;7.50;99.90;;;;;;5028011;28;20214;-79
2021/10/14 00:28:11;;;;;;;8.38;4.13;;;7.70;99.90;;;;;;5028994;28;20220;-79
2021/10/14 00:30:37;;;;;;;7.60;4.50;;;7.50;99.90;;;;;;5027995;28;20262;-79
2021/10/14 00:33:06;;;;;;;7.05;4.63;;;7.60;99.90;;;;;;5028192;28;20248;-79
2021/10/14 00:35:32;;;;;;;11.20;4.40;;;7.40;99.90;;;;;;5028734;28;20228;-79
2021/10/14 00:37:59;;;;;;;7.50;4.57;;;7.20;99.90;;;;;;5028574;28;20570;-79
2021/10/14 00:40:26;;;;;;;10.65;4.97;;;7.50;99.90;;;;;;5028645;28;20236;-79
2021/10/14 00:42:53;;;;;;;10.57;4.60;;;7.30;99.90;;;;;;5028317;28;20212;-79
2021/10/14 00:45:20;;;;;;;6.47;3.80;;;7.40;99.90;;;;;;5031630;28;20189;-80
2021/10/14 00:47:47;;;;;;;6.43;3.55;;;7.30;99.90;;;;;;5034990;28;20222;-80
2021/10/14 00:50:15;;;;;;;6.88;4.05;;;6.90;99.90;;;;;;5035952;28;20230;-79
2021/10/14 00:52:43;;;;;;;7.00;3.88;;;7.00;99.90;;;;;;5036417;28;20335;-79
2021/10/14 00:55:12;;;;;;;6.78;4.30;;;7.10;99.90;;;;;;5028688;28;20220;-80
2021/10/14 00:57:40;;;;;;;13.10;4.07;;;7.10;99.90;;;;;;5027613;28;20234;-79
2021/10/14 01:00:09;;;;;;;6.50;3.92;;;7.10;99.90;;;;;;5028708;28;20754;-80
2021/10/14 01:02:36;;;;;;;8.02;4.05;;;7.10;99.90;;;;;;5034965;28;20231;-79
2021/10/14 01:05:03;;;;;;;8.93;4.47;;;7.20;99.90;;;;;;5036661;28;20223;-79
2021/10/14 01:07:31;;;;;;;9.35;4.25;;;7.10;99.90;;;;;;5028043;28;20266;-79
2021/10/14 01:09:58;;;;;;;6.03;3.60;;;7.10;99.90;;;;;;5028211;28;20295;-79
2021/10/14 01:12:25;;;;;;;6.13;3.72;;;7.20;99.90;;;;;;5028297;28;20294;-79
2021/10/14 01:14:53;;;;;;;9.57;3.90;;;7.20;99.90;;;;;;5027398;28;20218;-79
2021/10/14 01:17:20;;;;;;;7.03;4.07;;;7.10;99.90;;;;;;5027475;28;20221;-79
2021/10/14 01:19:48;;;;;;;7.68;3.47;;;7.00;99.90;;;;;;5027136;28;20232;-79
2021/10/14 01:22:15;;;;;;;5.13;3.00;;;6.90;99.90;;;;;;5026793;28;20710;-79
2021/10/14 01:24:42;;;;;;;5.95;3.80;;;7.20;99.90;;;;;;5027362;28;20291;-79
2021/10/14 01:27:10;;;;;;;7.72;3.95;;;7.00;99.90;;;;;;5026589;28;20735;-79
2021/10/14 01:29:37;;;;;;;7.43;3.85;;;6.90;99.90;;;;;;5027772;28;20227;-79
2021/10/14 01:32:05;;;;;;;7.93;4.00;;;7.10;99.90;;;;;;5026882;28;20204;-79
2021/10/14 01:34:32;;;;;;;6.63;4.22;;;7.10;99.90;;;;;;5028484;28;20288;-79
2021/10/14 01:37:00;;;;;;;6.25;3.72;;;7.00;99.90;;;;;;5028366;28;20231;-79
2021/10/14 01:39:27;;;;;;;6.65;3.78;;;7.20;99.90;;;;;;5027027;28;20311;-79
2021/10/14 01:41:54;;;;;;;7.25;3.90;;;7.10;99.90;;;;;;5026969;28;20207;-80
2021/10/14 01:44:21;;;;;;;6.32;3.60;;;7.10;99.90;;;;;;5026346;28;20238;-79
2021/10/14 01:46:48;;;;;;;7.03;4.00;;;7.30;99.90;;;;;;5027443;28;20268;-79
2021/10/14 01:49:15;;;;;;;5.10;3.40;;;7.20;99.90;;;;;;5027561;28;20231;-80
2021/10/14 01:51:41;;;;;;;5.75;3.38;;;7.30;99.90;;;;;;5028027;28;20295;-79
2021/10/14 01:54:10;;;;;;;6.43;3.72;;;7.30;99.90;;;;;;5027642;28;20207;-79
2021/10/14 01:56:36;;;;;;;6.03;3.60;;;7.30;99.90;;;;;;5027454;28;20242;-79
2021/10/14 01:59:03;;;;;;;6.15;3.60;;;7.20;99.90;;;;;;5028432;28;20232;-79
2021/10/14 02:01:30;;;;;;;7.30;3.75;;;7.30;99.90;;;;;;5028526;28;20194;-78
2021/10/14 02:03:57;;;;;;;5.10;3.28;;;7.40;99.90;;;;;;5027311;28;20211;-78
2021/10/14 02:06:24;;;;;;;6.00;3.53;;;7.20;99.90;;;;;;5029252;28;20200;-79
2021/10/14 02:08:50;;;;;;;6.63;4.32;;;7.30;99.90;;;;;;5030894;28;20212;-79
2021/10/14 02:11:19;;;;;;;8.15;4.13;;;7.10;99.90;;;;;;5027996;28;20223;-79
2021/10/14 02:13:45;;;;;;;6.28;3.40;;;7.00;99.90;;;;;;5030198;28;20212;-79
2021/10/14 02:16:12;;;;;;;5.75;3.65;;;7.10;99.90;;;;;;5030319;28;20224;-79
2021/10/14 02:18:39;;;;;;;5.82;3.65;;;7.20;99.90;;;;;;5030714;28;20204;-79
2021/10/14 02:21:06;;;;;;;6.80;4.07;;;7.30;99.90;;;;;;5030979;28;20231;-79
2021/10/14 02:23:32;;;;;;;6.68;4.00;;;7.30;99.90;;;;;;5030863;28;20208;-79
2021/10/14 02:25:59;;;;;;;6.13;3.70;;;7.30;99.90;;;;;;5030181;28;20649;-79
2021/10/14 02:28:28;;;;;;;5.82;3.50;;;7.00;99.90;;;;;;5035860;28;20217;-78
2021/10/14 02:30:54;;;;;;;5.97;3.45;;;7.00;99.90;;;;;;5041333;28;20235;-78
2021/10/14 02:33:21;;;;;;;6.00;3.53;;;6.90;99.90;;;;;;5038184;28;20700;-79
2021/10/14 02:35:48;;;;;;;6.43;3.70;;;7.20;99.90;;;;;;5034733;28;20287;-79
2021/10/14 02:38:15;;;;;;;6.22;3.95;;;7.10;99.90;;;;;;5041448;28;20260;-78
2021/10/14 02:40:42;;;;;;;9.70;4.05;;;6.90;99.90;;;;;;5052011;23;20259;-81
2021/10/14 02:43:09;;;;;;;13.10;7.00;;;6.90;99.90;;;;;;5026312;28;20616;-80
2021/10/14 02:45:37;;;;;;;6.72;4.18;;;7.10;99.90;;;;;;5026362;28;20591;-80
2021/10/14 02:48:04;;;;;;;7.45;4.25;;;7.10;99.90;;;;;;5023596;28;20211;-80
2021/10/14 02:50:31;;;;;;;7.82;4.25;;;6.90;99.90;;;;;;5019894;28;20250;-80
2021/10/14 02:52:58;;;;;;;7.97;3.33;;;6.90;99.90;;;;;;5022721;28;20294;-81
2021/10/14 02:55:25;;;;;;;8.07;4.30;;;6.90;99.90;;;;;;5029176;28;20215;-81
2021/10/14 02:57:51;;;;;;;5.10;3.58;;;7.00;99.90;;;;;;5021412;28;20204;-80
2021/10/14 03:00:18;;;;;;;5.53;3.72;;;7.10;99.90;;;;;;5020277;28;20715;-80
2021/10/14 03:02:46;;;;;;;5.35;3.75;;;7.00;99.90;;;;;;5020837;28;20231;-81
2021/10/14 03:05:13;;;;;;;8.95;4.28;;;7.00;99.90;;;;;;5019836;28;20213;-80
2021/10/14 03:07:40;;;;;;;6.72;3.30;;;7.00;99.90;;;;;;5019277;28;20298;-80
2021/10/14 03:10:08;;;;;;;5.97;3.72;;;7.00;99.90;;;;;;5020125;28;20234;-80
2021/10/14 03:12:35;;;;;;;5.60;3.47;;;7.10;99.90;;;;;;5020760;28;20673;-81
2021/10/14 03:15:03;;;;;;;6.95;3.38;;;7.40;99.90;;;;;;5020547;28;20209;-80
2021/10/14 03:17:29;;;;;;;5.82;3.40;;;7.00;99.90;;;;;;5026744;28;20266;-80
2021/10/14 03:19:58;;;;;;;8.82;3.47;;;7.30;99.90;;;;;;5036869;28;20290;-80
2021/10/14 03:22:24;;;;;;;6.38;3.47;;;7.00;99.90;;;;;;5023531;28;20271;-80
2021/10/14 03:24:51;;;;;;;6.43;4.05;;;6.90;99.90;;;;;;5019938;28;20205;-78
2021/10/14 03:27:18;;;;;;;6.50;3.72;;;7.30;99.90;;;;;;5019299;28;20294;-80
2021/10/14 03:29:45;;;;;;;7.05;3.33;;;7.10;99.90;;;;;;5019101;28;20238;-82
2021/10/14 03:32:12;;;;;;;8.15;3.53;;;6.90;99.90;;;;;;5018713;28;20212;-81
2021/10/14 03:34:38;;;;;;;5.50;3.30;;;6.90;99.90;;;;;;5018871;28;20618;-81
2021/10/14 03:37:07;;;;;;;7.80;3.78;;;6.90;99.90;;;;;;5022444;28;20233;-82
2021/10/14 03:39:33;;;;;;;7.97;3.90;;;7.00;99.90;;;;;;5019917;28;20303;-82
2021/10/14 03:42:00;;;;;;;5.95;3.40;;;6.90;99.90;;;;;;5019228;28;20201;-81
2021/10/14 03:44:27;;;;;;;5.80;3.95;;;7.10;99.90;;;;;;5019614;28;20218;-81
2021/10/14 03:46:54;;;;;;;7.00;4.50;;;6.70;99.90;;;;;;5019813;28;20212;-81
2021/10/14 03:49:21;;;;;;;5.32;3.47;;;6.90;99.90;;;;;;5019933;28;20556;-81
2021/10/14 03:51:47;;;;;;;5.22;3.47;;;6.60;99.90;;;;;;5019846;28;20294;-81
2021/10/14 03:54:15;;;;;;;5.25;3.80;;;6.70;99.90;;;;;;5026556;28;20299;-81
2021/10/14 03:56:42;;;;;;;9.07;4.47;;;6.60;99.90;;;;;;5024526;28;20234;-80
2021/10/14 03:59:09;;;;;;;7.28;3.80;;;6.60;99.90;;;;;;5035614;28;20196;-81
2021/10/14 04:01:36;;;;;;;6.22;3.75;;;6.40;99.90;;;;;;5019209;28;20231;-82
2021/10/14 04:04:03;;;;;;;5.65;3.30;;;6.60;99.90;;;;;;5021403;28;20222;-81
2021/10/14 04:06:29;;;;;;;6.78;3.75;;;6.60;99.90;;;;;;5021058;28;20586;-81
2021/10/14 04:08:56;;;;;;;8.13;4.07;;;6.50;99.90;;;;;;5019555;28;20211;-81
2021/10/14 04:11:24;;;;;;;7.03;3.75;;;6.40;99.90;;;;;;5020051;28;20290;-80
2021/10/14 04:13:51;;;;;;;8.10;4.10;;;6.70;99.90;;;;;;5021771;28;20212;-81
2021/10/14 04:16:18;;;;;;;6.47;3.58;;;6.50;99.90;;;;;;5019411;28;20229;-81
2021/10/14 04:18:45;;;;;;;6.43;3.85;;;6.60;99.90;;;;;;5018841;28;20212;-88
2021/10/14 04:21:11;;;;;;;5.47;3.30;;;6.50;99.90;;;;;;5019167;28;20720;-81
2021/10/14 04:23:42;;;;;;;7.15;4.20;;;6.70;99.90;;;;;;5019853;28;20204;-80
2021/10/14 04:26:09;;;;;;;7.38;4.25;;;6.60;99.90;;;;;;5019833;28;20210;-81
2021/10/14 04:28:38;;;;;;;6.35;3.50;;;6.60;99.90;;;;;;5018128;28;20285;-81
2021/10/14 04:31:05;;;;;;;5.20;3.53;;;6.70;99.90;;;;;;5018779;28;20238;-81
2021/10/14 04:33:32;;;;;;;7.43;3.83;;;6.90;99.90;;;;;;5018234;28;20587;-80
2021/10/14 04:36:01;;;;;;;6.13;4.10;;;6.60;99.90;;;;;;5031136;28;20204;-80
2021/10/14 04:38:28;;;;;;;8.32;4.50;;;6.90;99.90;;;;;;5027786;28;20242;-80
2021/10/14 04:40:55;;;;;;;7.32;3.80;;;6.80;99.90;;;;;;5034988;28;20274;-80
2021/10/14 04:43:23;;;;;;;7.70;4.15;;;6.80;99.90;;;;;;5026808;28;20295;-80
2021/10/14 04:45:51;;;;;;;6.32;4.38;;;6.90;99.90;;;;;;5029613;28;20215;-80
2021/10/14 04:48:18;;;;;;;7.25;5.15;;;7.00;99.90;;;;;;5033435;28;20272;-80
2021/10/14 04:50:45;;;;;;;6.13;3.75;;;6.90;99.90;;;;;;5029002;28;20314;-80
2021/10/14 04:53:12;;;;;;;6.15;4.05;;;7.10;99.90;;;;;;5033260;28;20212;-82
2021/10/14 04:55:39;;;;;;;6.80;4.07;;;7.20;99.90;;;;;;5033350;28;20211;-81
2021/10/14 04:58:06;;;;;;;8.18;4.20;;;7.20;99.90;;;;;;5034567;28;20234;-80
2021/10/14 05:00:33;;;;;;;6.43;4.00;;;7.20;99.90;;;;;;5029566;28;20323;-82
2021/10/14 05:03:01;;;;;;;7.13;4.15;;;7.30;99.90;;;;;;5023216;28;20208;-81
2021/10/14 05:05:28;;;;;;;6.90;4.00;;;6.90;99.90;;;;;;5019124;28;20215;-82
2021/10/14 05:07:54;;;;;;;6.82;4.53;;;7.10;99.90;;;;;;5019523;28;20220;-81
2021/10/14 05:10:21;;;;;;;6.70;4.13;;;7.20;99.90;;;;;;5018169;28;20295;-80
2021/10/14 05:12:48;;;;;;;9.00;4.13;;;6.90;99.90;;;;;;5024890;28;20246;-80
2021/10/14 05:15:15;;;;;;;7.70;4.07;;;7.00;99.90;;;;;;5016803;28;20295;-80
2021/10/14 05:17:42;;;;;;;7.50;3.67;;;7.20;99.90;;;;;;5016739;28;20316;-80
2021/10/14 05:20:11;;;;;;;7.47;4.63;;;7.20;99.90;;;;;;5017116;28;20235;-80
2021/10/14 05:22:38;;;;;;;8.73;4.60;;;7.20;99.90;;;;;;5018230;28;20252;-80
2021/10/14 05:25:05;;;;;;;6.82;4.10;;;7.10;99.90;;;;;;5019185;28;20208;-80
2021/10/14 05:27:34;;;;;;;17.35;4.60;;;7.40;99.90;;;;;;5023803;28;20216;-80
2021/10/14 05:30:00;;;;;;;7.72;3.97;;;7.30;99.90;;;;;;5034750;28;20234;-78
2021/10/14 05:32:27;;;;;;;7.85;4.38;;;7.20;99.90;;;;;;5032200;28;20272;-80
2021/10/14 05:34:54;;;;;;;6.95;4.03;;;7.30;99.90;;;;;;5019239;28;20574;-81
2021/10/14 05:37:22;;;;;;;8.00;4.35;;;7.30;99.90;;;;;;5017311;28;20323;-82
2021/10/14 05:39:49;;;;;;;8.55;4.80;;;7.20;99.90;;;;;;5021229;28;20240;-80
2021/10/14 05:42:16;;;;;;;10.55;6.00;;;7.60;99.90;;;;;;5021587;28;20287;-80
2021/10/14 05:44:43;;;;;;;7.50;4.40;;;7.30;99.90;;;;;;5024903;28;20209;-80
2021/10/14 05:47:10;;;;;;;7.68;4.38;;;7.30;99.90;;;;;;5026893;28;20586;-80
2021/10/14 05:49:36;;;;;;;6.47;4.40;;;7.20;99.90;;;;;;5017233;28;20698;-79
2021/10/14 05:52:04;;;;;;;6.65;4.00;;;7.60;99.90;;;;;;5018127;28;20295;-79
2021/10/14 05:54:32;;;;;;;6.25;3.60;;;7.60;99.90;;;;;;5017173;28;20215;-80
2021/10/14 05:56:59;;;;;;;10.02;4.00;;;7.50;99.90;;;;;;5016935;28;20247;-81
2021/10/14 05:59:26;;;;;;;7.57;4.30;;;7.40;99.90;;;;;;5017463;28;20339;-81
2021/10/14 06:01:53;;;;;;;6.72;4.28;;;7.70;99.90;;;;;;5017565;28;20212;-81
2021/10/14 06:04:20;;;;;;;6.03;3.85;;;7.90;99.90;;;;;;5017108;28;20212;-81
2021/10/14 06:06:47;;;;;;;11.07;4.57;;;7.70;99.90;;;;;;5016869;28;20211;-81
2021/10/14 06:09:14;;;;;;;8.90;4.55;;;7.80;99.90;;;;;;5017527;28;20231;-81
2021/10/14 06:11:42;;;;;;;6.07;3.65;;;7.70;99.90;;;;;;5016562;28;20315;-81
2021/10/14 06:14:09;;;;;;;7.18;4.15;;;7.80;99.90;;;;;;5016916;28;20644;-80
2021/10/14 06:16:35;;;;;;;6.72;4.20;;;7.90;99.90;;;;;;5017523;28;20288;-81
2021/10/14 06:19:02;;;;;;;6.13;4.10;;;7.90;99.90;;;;;;5017704;28;20196;-80
2021/10/14 06:21:29;;;;;;;7.13;3.92;;;7.90;99.90;;;;;;5017032;28;20228;-80
2021/10/14 06:23:56;;;;;;;10.73;4.38;;;7.80;99.90;;;;;;5016439;28;20304;-80
2021/10/14 06:26:23;;;;;;;7.35;4.50;;;7.80;99.90;;;;;;5017494;28;20214;-80
2021/10/14 06:28:51;;;;;;;7.95;4.55;;;7.90;99.90;;;;;;5018460;28;20287;-80
2021/10/14 06:31:19;;;;;;;9.27;3.92;;;7.90;99.90;;;;;;5030180;28;20296;-80
2021/10/14 06:33:45;;;;;;;11.43;5.70;;;8.00;99.90;;;;;;5031005;28;20209;-80
2021/10/14 06:36:12;;;;;;;7.05;4.35;;;7.70;99.90;;;;;;5019501;28;20247;-79
2021/10/14 06:38:39;;;;;;;6.72;4.20;;;8.10;99.90;;;;;;5016299;28;20677;-79
2021/10/14 06:41:06;;;;;;;7.80;4.05;;;8.00;99.90;;;;;;5019659;28;20236;-79
2021/10/14 06:43:33;;;;;;;9.37;4.23;;;8.30;99.90;;;;;;5026683;28;20248;-79
2021/10/14 06:46:01;;;;;;;10.80;4.32;;;8.10;99.90;;;;;;5026624;28;20747;-80
2021/10/14 06:48:28;;;;;;;7.13;4.00;;;8.30;99.90;;;;;;5024052;28;20299;-80
2021/10/14 06:50:55;;;;;;;6.53;4.27;;;8.30;99.90;;;;;;5025116;28;20468;-80
2021/10/14 06:53:21;;;;;;;12.95;5.00;;;8.30;99.90;;;;;;5019670;28;20467;-82
2021/10/14 06:55:49;;;;;;;6.93;4.73;;;8.40;99.90;;;;;;5019305;28;20216;-79
2021/10/14 06:58:16;;;;;;;7.90;3.93;;;8.50;99.90;;;;;;5018866;28;20462;-79
2021/10/14 07:00:43;;;;;;;7.43;4.47;;;8.60;99.90;;;;;;5018800;28;20487;-80
2021/10/14 07:03:11;;;;;;;8.17;5.03;;;8.70;99.90;;;;;;5018768;28;20432;-79
2021/10/14 07:05:38;;;;;;;7.50;4.00;;;8.80;99.90;;;;;;5019438;28;20432;-79
2021/10/14 07:08:05;;;;;;;8.40;4.10;;;8.80;99.90;;;;;;5019471;28;20216;-78
2021/10/14 07:10:32;;;;;;;8.80;5.23;;;8.90;99.90;;;;;;5023148;28;20559;-81
2021/10/14 07:13:04;;;;;;;13.30;4.90;;;9.00;99.90;;;;;;5021578;28;20511;-80
2021/10/14 07:15:31;;;;;;;10.60;4.80;;;9.00;99.90;;;;;;5021727;28;20436;-81
2021/10/14 07:17:58;;;;;;;5.80;3.60;;;9.10;99.90;;;;;;5021109;28;20489;-80
2021/10/14 07:20:26;;;;;;;5.77;3.97;;;9.10;99.90;;;;;;5022914;28;20569;-80
2021/10/14 07:22:54;;;;;;;8.93;4.10;;;9.20;99.90;;;;;;5029688;28;20454;-81
2021/10/14 07:25:21;;;;;;;6.27;3.93;;;9.30;99.90;;;;;;5023304;28;20535;-81
2021/10/14 07:27:47;;;;;;;7.37;4.53;;;9.40;99.90;;;;;;5018302;28;20431;-82
2021/10/14 07:30:14;;;;;;;5.90;3.73;;;9.40;99.90;;;;;;5019669;28;20552;-79
2021/10/14 07:32:41;;;;;;;12.33;4.33;;;9.50;99.90;;;;;;5026970;28;20786;-78
2021/10/14 07:35:08;;;;;;;10.37;4.60;;;9.50;99.90;;;;;;5030798;28;20551;-81
2021/10/14 07:37:37;;;;;;;6.70;3.87;;;9.60;99.90;;;;;;5020678;28;20495;-80
2021/10/14 07:40:04;;;;;;;6.63;3.70;;;9.70;99.90;;;;;;5018798;28;21027;-79
2021/10/14 07:42:31;;;;;;;7.53;4.30;;;9.70;99.90;;;;;;5023171;28;20457;-79
2021/10/14 07:44:58;;;;;;;6.03;4.23;;;9.70;99.90;;;;;;5035932;28;20458;-79
2021/10/14 07:47:24;;;;;;;8.57;4.10;;;9.70;99.90;;;;;;5024925;28;20513;-80
2021/10/14 07:49:51;;;;;;;5.87;3.50;;;9.80;99.90;;;;;;5019340;28;20477;-80
2021/10/14 07:52:18;;;;;;;6.60;4.70;;;9.80;99.90;;;;;;5019780;28;20865;-79
2021/10/14 07:54:46;;;;;;;10.00;4.20;;;9.80;99.90;;;;;;5018921;28;20453;-80
2021/10/14 07:57:15;;;;;;;6.00;3.93;;;9.90;99.90;;;;;;5018522;28;20457;-81
2021/10/14 07:59:42;;;;;;;7.70;4.60;;;10.00;99.90;;;;;;5019220;28;20477;-81
2021/10/14 08:02:11;;;;;;;10.17;4.93;;;10.10;99.90;;;;;;5022289;28;20521;-80
2021/10/14 08:04:38;;;;;;;11.13;4.97;;;10.20;99.90;;;;;;5031653;28;20437;-81
2021/10/14 08:07:04;;;;;;;9.13;4.50;;;10.20;99.90;;;;;;5024523;28;20453;-81
2021/10/14 08:09:31;;;;;;;7.10;4.17;;;10.30;99.90;;;;;;5018791;28;20428;-80
2021/10/14 08:11:59;;;;;;;6.13;3.93;;;10.40;99.90;;;;;;5018553;28;20475;-80
2021/10/14 08:14:26;;;;;;;7.60;3.63;;;10.40;99.90;;;;;;5018879;28;20524;-80
2021/10/14 08:16:53;;;;;;;6.97;4.00;;;10.50;99.90;;;;;;5018894;28;20456;-81
2021/10/14 08:19:20;;;;;;;9.40;4.40;;;10.40;99.90;;;;;;5018094;28;20984;-81
2021/10/14 08:21:46;;;;;;;7.10;4.07;;;10.50;99.90;;;;;;5017525;28;20457;-81
2021/10/14 08:24:13;;;;;;;6.43;3.73;;;10.50;99.90;;;;;;5018988;28;20431;-81
2021/10/14 08:26:40;;;;;;;6.93;4.03;;;10.60;99.90;;;;;;5018601;28;20759;-81
2021/10/14 08:29:08;;;;;;;5.60;3.73;;;10.60;99.90;;;;;;5018258;28;20449;-80
2021/10/14 08:31:35;;;;;;;9.60;4.00;;;10.60;99.90;;;;;;5018690;28;20473;-79
2021/10/14 08:34:02;;;;;;;6.77;3.67;;;10.70;99.90;;;;;;5024629;28;20441;-80
2021/10/14 08:36:30;;;;;;;8.90;3.40;;;10.70;99.90;;;;;;5022575;28;21031;-83
2021/10/14 08:38:57;;;;;;;4.93;3.40;;;10.70;99.90;;;;;;5021266;28;20484;-83
2021/10/14 08:41:24;;;;;;;5.50;3.23;;;10.70;99.90;;;;;;5022181;28;20560;-82
2021/10/14 08:43:52;;;;;;;6.00;3.10;;;10.80;99.90;;;;;;5018552;28;20527;-83
2021/10/14 08:46:20;;;;;;;6.43;3.80;;;10.90;99.90;;;;;;5019112;28;20456;-81
2021/10/14 08:48:48;;;;;;;5.33;3.30;;;10.90;99.90;;;;;;5017602;28;20477;-79
2021/10/14 08:51:14;;;;;;;8.80;3.83;;;10.90;99.90;;;;;;5017305;28;20464;-80
2021/10/14 08:53:41;;;;;;;9.47;3.50;;;11.10;99.90;;;;;;5028153;28;20428;-79
2021/10/14 08:56:08;;;;;;;8.50;3.50;;;11.20;99.90;;;;;;5031961;28;21038;-80
2021/10/14 08:58:35;;;;;;;5.33;3.00;;;11.30;99.90;;;;;;5024949;28;21058;-80
2021/10/14 09:01:11;;;;;;;7.53;3.40;;;11.30;99.90;;;;;;5037927;23;20513;-80
2021/10/14 09:03:43;;;;;;;10.93;3.80;;;11.40;99.90;;;;;;5018977;28;20504;-80
2021/10/14 09:06:11;;;;;;;5.10;2.90;;;11.60;99.90;;;;;;5018701;28;20549;-80
2021/10/14 09:08:40;;;;;;;8.77;3.43;;;11.60;99.90;;;;;;5018190;28;20451;-81
2021/10/14 09:11:09;;;;;;;8.60;3.77;;;11.80;99.90;;;;;;5020663;28;20815;-81
2021/10/14 09:13:36;;;;;;;7.67;3.37;;;11.90;99.90;;;;;;5019679;28;20453;-81
2021/10/14 09:16:27;;;;;;;5.53;3.40;;;12.00;99.90;;;;;;5019263;28;20454;-81
2021/10/14 09:18:56;;;;;;;5.97;3.40;;;12.30;99.90;;;;;;5019538;28;20514;-80
2021/10/14 09:21:25;;;;;;;5.17;3.23;;;12.40;99.90;;;;;;5018878;28;20455;-80
2021/10/14 09:23:52;;;;;;;6.77;3.20;;;12.50;99.90;;;;;;5016768;28;20824;-80
2021/10/14 09:26:32;;;;;;;5.13;3.00;;;12.60;99.90;;;;;;5017773;28;20549;-81
2021/10/14 09:29:10;;;;;;;7.07;3.13;;;12.80;99.90;;;;;;5027983;28;20469;-80
2021/10/14 09:31:48;;;;;;;11.60;3.97;;;12.80;99.90;;;;;;5017771;28;20852;-81
2021/10/14 09:34:34;;;;;;;9.97;3.33;;;12.90;99.90;;;;;;5017419;28;20776;-81
2021/10/14 09:37:03;;;;;;;6.17;3.00;;;13.00;99.90;;;;;;5019986;28;20918;-79
2021/10/14 09:39:30;;;;;;;5.90;2.80;;;13.00;99.90;;;;;;5016757;28;20490;-80
2021/10/14 09:41:58;;;;;;;5.80;3.27;;;13.00;99.90;;;;;;5016853;28;20421;-80
2021/10/14 09:44:26;;;;;;;5.47;3.47;;;13.10;99.90;;;;;;5016029;28;20471;-81
2021/10/14 09:46:54;;;;;;;6.10;3.50;;;13.00;99.90;;;;;;5016869;28;20405;-81
2021/10/14 09:49:23;;;;;;;6.43;3.00;;;13.00;99.90;;;;;;5017322;28;20508;-80
2021/10/14 09:51:52;;;;;;;4.80;3.00;;;13.10;99.90;;;;;;5016679;28;20454;-80
2021/10/14 09:54:19;;;;;;;4.27;2.30;;;13.20;99.90;;;;;;5016853;28;20428;-79
2021/10/14 09:56:46;;;;;;;6.50;2.63;;;13.20;99.90;;;;;;5017222;28;20895;-80
2021/10/14 09:59:13;;;;;;;4.93;2.50;;;13.20;99.90;;;;;;5017530;28;20496;-79
2021/10/14 10:01:42;;;;;;;4.37;2.20;;;13.30;99.90;;;;;;5017531;28;20489;-80
2021/10/14 10:04:09;;;;;;;8.57;2.83;;;13.40;99.90;;;;;;5018866;28;20942;-80
2021/10/14 10:06:38;;;;;;;5.43;2.50;;;13.50;99.90;;;;;;5017619;28;20793;-80
2021/10/14 10:09:11;;;;;;;6.17;2.67;;;13.60;99.90;;;;;;5017094;28;20454;-80
2021/10/14 10:11:43;;;;;;;4.50;2.20;;;13.50;99.90;;;;;;5016975;28;20520;-81
2021/10/14 10:14:11;;;;;;;3.90;1.90;;;13.60;99.90;;;;;;5017467;28;20441;-80
2021/10/14 10:16:38;;;;;;;3.87;1.93;;;13.70;99.90;;;;;;5018031;28;20811;-80
2021/10/14 10:19:07;;;;;;;5.53;2.00;;;13.70;99.90;;;;;;5019073;28;20490;-81
2021/10/14 10:21:44;;;;;;;4.37;2.00;;;13.80;99.90;;;;;;5024756;28;20481;-79
2021/10/14 10:24:34;;;;;;;3.40;1.70;;;13.90;99.90;;;;;;5023538;28;20502;-79
2021/10/14 10:27:08;;;;;;;4.47;2.10;;;14.00;99.90;;;;;;5024418;28;20445;-81
2021/10/14 10:29:48;;;;;;;4.20;2.30;;;13.90;99.90;;;;;;5024269;28;20415;-83
2021/10/14 10:32:21;;;;;;;6.07;2.03;;;13.80;99.90;;;;;;5021886;28;20441;-83
2021/10/14 10:35:01;;;;;;;4.90;2.30;;;13.80;99.90;;;;;;5024102;28;20440;-83
2021/10/14 10:37:40;;;;;;;4.80;2.20;;;14.00;99.90;;;;;;5024757;28;20496;-82
2021/10/14 10:40:15;;;;;;;5.00;1.80;;;14.10;99.90;;;;;;5023302;28;20479;-82
2021/10/14 10:42:43;;;;;;;4.20;1.80;;;14.20;99.90;;;;;;5023955;28;20408;-82
2021/10/14 10:45:12;;;;;;;5.00;1.90;;;14.20;99.90;;;;;;5023698;28;20456;-82
2021/10/14 10:47:46;;;;;;;5.23;1.73;;;14.30;99.90;;;;;;5023662;28;20894;-82
2021/10/14 10:50:16;;;;;;;8.40;2.10;;;14.30;99.90;;;;;;5023028;28;20549;-81
2021/10/14 10:52:44;;;;;;;7.20;2.47;;;14.30;99.90;;;;;;5022997;28;20433;-82
2021/10/14 10:55:33;;;;;;;4.80;2.03;;;14.20;99.90;;;;;;5026571;28;20450;-83
2021/10/14 10:58:00;;;;;;;4.73;2.90;;;14.20;99.80;;;;;;5023156;28;20413;-82
2021/10/14 11:00:27;;;;;;;5.07;2.47;;;14.30;99.50;;;;;;5023772;28;20453;-83
2021/10/14 11:03:16;;;;;;;3.67;1.90;;;14.40;99.40;;;;;;5034898;28;20505;-82
2021/10/14 11:05:46;;;;;;;6.43;2.40;;;14.60;99.40;;;;;;5024786;28;20402;-81
2021/10/14 11:08:18;;;;;;;6.77;2.43;;;14.50;99.30;;;;;;5023018;28;20564;-81
2021/10/14 11:10:48;;;;;;;5.40;2.07;;;14.50;99.00;;;;;;5022021;28;20453;-81
2021/10/14 11:13:15;;;;;;;6.43;2.03;;;14.60;98.50;;;;;;5021449;28;20442;-82
2021/10/14 11:15:46;;;;;;;4.73;2.13;;;14.60;98.80;;;;;;5020293;28;20454;-81
2021/10/14 11:18:13;;;;;;;5.47;2.70;;;14.60;98.80;;;;;;5019637;28;20551;-79
2021/10/14 11:20:50;;;;;;;6.00;2.20;;;14.50;98.90;;;;;;5019319;28;20961;-79
2021/10/14 11:23:17;;;;;;;4.70;2.33;;;14.40;99.00;;;;;;5019948;28;20438;-80
2021/10/14 11:25:45;;;;;;;6.07;3.17;;;14.50;99.10;;;;;;5020057;28;20517;-79
2021/10/14 11:28:12;;;;;;;5.87;2.93;;;14.60;99.10;;;;;;5020399;28;20437;-83
2021/10/14 11:30:44;;;;;;;4.90;2.80;;;14.80;99.10;;;;;;5019920;28;20505;-80
2021/10/14 11:33:14;;;;;;;6.30;3.33;;;15.00;99.10;;;;;;5018934;28;20439;-81
2021/10/14 11:35:41;;;;;;;6.40;3.30;;;15.10;98.90;;;;;;5020877;28;20432;-79
2021/10/14 11:38:13;;;;;;;5.13;2.67;;;15.10;98.70;;;;;;5019893;28;20437;-79
2021/10/14 11:40:41;;;;;;;7.10;3.93;;;15.10;98.40;;;;;;5019112;28;20476;-80
2021/10/14 11:43:10;;;;;;;9.53;4.50;;;15.30;98.70;;;;;;5019180;28;20425;-80
2021/10/14 11:45:43;;;;;;;5.37;3.17;;;15.40;99.10;;;;;;5019553;28;20517;-80
2021/10/14 11:48:46;;;;;;;5.33;2.70;;;15.40;98.90;;;;;;5019275;28;20427;-80
2021/10/14 11:51:22;;;;;;;6.10;3.30;;;15.50;98.80;;;;;;5018624;28;20481;-80
2021/10/14 11:53:58;;;;;;;4.90;2.80;;;15.60;98.70;;;;;;5018954;28;20455;-80
2021/10/14 11:56:26;;;;;;;4.77;2.50;;;15.50;98.50;;;;;;5019236;28;20423;-80
2021/10/14 11:58:58;;;;;;;5.87;3.40;;;15.70;98.60;;;;;;5019242;28;20500;-81
2021/10/14 12:01:28;;;;;;;6.63;3.73;;;15.80;98.60;;;;;;5023209;28;20510;-79
2021/10/14 12:03:56;;;;;;;21.57;9.40;;;15.60;98.50;;;;;;5028911;28;20437;-78
2021/10/14 12:06:24;;;;;;;6.60;4.07;;;15.50;99.40;;;;;;5032715;28;20433;-81
2021/10/14 12:08:51;;;;;;;8.30;3.53;;;15.60;99.30;;;;;;5026392;28;20541;-80
2021/10/14 12:11:22;;;;;;;7.93;3.10;;;15.60;99.40;;;;;;5034078;28;20467;-81
2021/10/14 12:14:01;;;;;;;6.27;3.37;;;15.70;98.60;;;;;;5030783;28;20434;-81
2021/10/14 12:16:30;;;;;;;7.10;3.60;;;15.70;98.80;;;;;;5025395;28;20452;-81
2021/10/14 12:19:11;;;;;;;6.67;3.53;;;15.70;98.80;;;;;;5025224;28;20472;-79
2021/10/14 12:21:41;;;;;;;4.67;3.23;;;15.90;98.50;;;;;;5022865;28;20480;-80
2021/10/14 12:24:11;;;;;;;5.17;2.83;;;15.90;98.20;;;;;;5024277;28;20489;-82
2021/10/14 12:26:40;;;;;;;4.57;3.00;;;16.00;98.40;;;;;;5022810;28;20425;-80
2021/10/14 12:29:26;;;;;;;6.13;3.67;;;16.10;98.20;;;;;;5021237;28;20447;-80
2021/10/14 12:32:11;;;;;;;5.00;3.27;;;15.90;98.50;;;;;;5022747;28;20438;-81
2021/10/14 12:34:56;;;;;;;6.50;3.60;;;16.00;98.60;;;;;;5021297;28;20952;-81
2021/10/14 12:37:28;;;;;;;7.67;3.47;;;16.00;98.80;;;;;;5020362;28;20812;-80
2021/10/14 12:40:20;;;;;;;5.13;2.90;;;16.00;98.50;;;;;;5018942;28;20483;-79
2021/10/14 12:45:54;;;;;;;5.10;2.67;;;16.20;98.40;;;;;;5019616;28;20405;-79
2021/10/14 12:48:29;;;;;;;5.17;2.87;;;16.30;98.40;;;;;;5026927;28;20425;-79
2021/10/14 12:51:08;;;;;;;8.30;3.20;;;16.20;98.80;;;;;;5020972;28;20466;-79
2021/10/14 12:53:40;;;;;;;6.50;3.17;;;16.30;98.80;;;;;;5017359;28;20567;-78
2021/10/14 12:56:07;;;;;;;7.13;2.50;;;16.20;98.70;;;;;;5020174;28;20427;-82
2021/10/14 12:58:35;;;;;;;5.00;2.70;;;16.40;98.40;;;;;;5020329;28;20787;-79
2021/10/14 13:01:05;;;;;;;6.77;2.83;;;16.40;98.40;;;;;;5017152;28;20541;-78
2021/10/14 13:03:33;;;;;;;4.20;2.20;;;16.40;98.60;;;;;;5017941;28;20475;-77